sensor_id;sensor_type;location;lat;lon;timestamp;temperature;humidity
6540;DHT22;50344;51.142;16.892;2023-10-13T00:00:34;23.80;68.00
6540;DHT22;50344;51.142;16.892;2023-10-13T00:03:04;23.90;68.00
6540;DHT22;50344;51.142;16.892;2023-10-13T00:05:31;23.80;67.70
6540;DHT22;50344;51.142;16.892;2023-10-13T00:07:59;23.80;67.90
6540;DHT22;50344;51.142;16.892;2023-10-13T00:10:28;23.80;67.90
6540;DHT22;50344;51.142;16.892;2023-10-13T00:12:55;23.80;68.00
6540;DHT22;50344;51.142;16.892;2023-10-13T00:15:32;23.80;68.10
6540;DHT22;50344;51.142;16.892;2023-10-13T00:18:06;24.00;68.20
6540;DHT22;50344;51.142;16.892;2023-10-13T00:20:41;23.90;67.40
6540;DHT22;50344;51.142;16.892;2023-10-13T00:23:13;23.80;67.70
6540;DHT22;50344;51.142;16.892;2023-10-13T00:25:39;23.80;68.00
6540;DHT22;50344;51.142;16.892;2023-10-13T00:28:14;23.80;68.10
6540;DHT22;50344;51.142;16.892;2023-10-13T00:30:49;23.80;68.00
6540;DHT22;50344;51.142;16.892;2023-10-13T00:33:17;23.80;67.90
6540;DHT22;50344;51.142;16.892;2023-10-13T00:35:46;23.90;68.10
6540;DHT22;50344;51.142;16.892;2023-10-13T00:38:13;23.90;68.10
6540;DHT22;50344;51.142;16.892;2023-10-13T00:40:39;23.80;68.10
6540;DHT22;50344;51.142;16.892;2023-10-13T00:43:05;23.80;68.00
6540;DHT22;50344;51.142;16.892;2023-10-13T00:46:00;23.80;67.50
6540;DHT22;50344;51.142;16.892;2023-10-13T00:48:31;23.90;68.10
6540;DHT22;50344;51.142;16.892;2023-10-13T00:51:07;23.90;68.00
6540;DHT22;50344;51.142;16.892;2023-10-13T00:53:37;23.80;67.90
6540;DHT22;50344;51.142;16.892;2023-10-13T00:56:08;23.90;68.10
6540;DHT22;50344;51.142;16.892;2023-10-13T00:58:47;23.90;67.90
6540;DHT22;50344;51.142;16.892;2023-10-13T01:01:15;23.90;67.80
6540;DHT22;50344;51.142;16.892;2023-10-13T01:03:52;23.80;67.10
6540;DHT22;50344;51.142;16.892;2023-10-13T01:06:24;23.90;67.70
6540;DHT22;50344;51.142;16.892;2023-10-13T01:09:06;23.90;67.70
6540;DHT22;50344;51.142;16.892;2023-10-13T01:11:41;23.90;67.50
6540;DHT22;50344;51.142;16.892;2023-10-13T01:14:09;23.70;67.20
6540;DHT22;50344;51.142;16.892;2023-10-13T01:16:37;23.90;67.20
6540;DHT22;50344;51.142;16.892;2023-10-13T01:19:12;23.90;67.00
6540;DHT22;50344;51.142;16.892;2023-10-13T01:21:38;23.90;66.20
6540;DHT22;50344;51.142;16.892;2023-10-13T01:24:07;23.90;66.70
6540;DHT22;50344;51.142;16.892;2023-10-13T01:26:36;23.90;66.60
6540;DHT22;50344;51.142;16.892;2023-10-13T01:29:07;23.90;66.20
6540;DHT22;50344;51.142;16.892;2023-10-13T01:31:38;23.90;66.80
6540;DHT22;50344;51.142;16.892;2023-10-13T01:34:20;23.90;66.60
6540;DHT22;50344;51.142;16.892;2023-10-13T01:36:53;23.90;66.60
6540;DHT22;50344;51.142;16.892;2023-10-13T01:39:21;23.90;65.90
6540;DHT22;50344;51.142;16.892;2023-10-13T01:41:47;23.90;66.90
6540;DHT22;50344;51.142;16.892;2023-10-13T01:44:23;23.90;66.70
6540;DHT22;50344;51.142;16.892;2023-10-13T01:46:49;23.60;66.60
6540;DHT22;50344;51.142;16.892;2023-10-13T01:49:16;23.90;66.50
6540;DHT22;50344;51.142;16.892;2023-10-13T01:51:42;23.90;66.90
6540;DHT22;50344;51.142;16.892;2023-10-13T01:54:08;23.90;67.00
6540;DHT22;50344;51.142;16.892;2023-10-13T01:56:38;23.90;66.60
6540;DHT22;50344;51.142;16.892;2023-10-13T01:59:13;23.90;67.00
6540;DHT22;50344;51.142;16.892;2023-10-13T02:01:39;23.90;66.90
6540;DHT22;50344;51.142;16.892;2023-10-13T02:04:08;23.90;66.60
6540;DHT22;50344;51.142;16.892;2023-10-13T02:06:36;23.90;66.60
6540;DHT22;50344;51.142;16.892;2023-10-13T02:09:06;23.90;66.90
6540;DHT22;50344;51.142;16.892;2023-10-13T02:12:01;23.70;66.50
6540;DHT22;50344;51.142;16.892;2023-10-13T02:14:26;23.90;67.00
6540;DHT22;50344;51.142;16.892;2023-10-13T02:16:52;23.90;66.90
6540;DHT22;50344;51.142;16.892;2023-10-13T02:19:39;23.90;66.60
6540;DHT22;50344;51.142;16.892;2023-10-13T02:22:09;23.90;66.70
6540;DHT22;50344;51.142;16.892;2023-10-13T02:24:36;23.90;66.50
6540;DHT22;50344;51.142;16.892;2023-10-13T02:27:08;23.90;66.70
6540;DHT22;50344;51.142;16.892;2023-10-13T02:29:43;23.90;66.40
6540;DHT22;50344;51.142;16.892;2023-10-13T02:32:12;23.90;66.40
6540;DHT22;50344;51.142;16.892;2023-10-13T02:34:46;23.90;66.40
6540;DHT22;50344;51.142;16.892;2023-10-13T02:37:12;23.90;66.40
6540;DHT22;50344;51.142;16.892;2023-10-13T02:39:42;23.90;66.50
6540;DHT22;50344;51.142;16.892;2023-10-13T02:42:08;23.90;65.90
6540;DHT22;50344;51.142;16.892;2023-10-13T02:44:41;23.90;66.50
6540;DHT22;50344;51.142;16.892;2023-10-13T02:47:11;23.90;66.60
6540;DHT22;50344;51.142;16.892;2023-10-13T02:49:40;23.80;65.80
6540;DHT22;50344;51.142;16.892;2023-10-13T02:52:12;23.90;66.50
6540;DHT22;50344;51.142;16.892;2023-10-13T02:54:39;23.90;66.50
6540;DHT22;50344;51.142;16.892;2023-10-13T02:57:08;23.90;66.60
6540;DHT22;50344;51.142;16.892;2023-10-13T02:59:34;23.80;66.30
6540;DHT22;50344;51.142;16.892;2023-10-13T03:02:06;23.90;66.60
6540;DHT22;50344;51.142;16.892;2023-10-13T03:04:54;23.90;65.50
6540;DHT22;50344;51.142;16.892;2023-10-13T03:07:46;23.90;66.40
6540;DHT22;50344;51.142;16.892;2023-10-13T03:10:12;23.80;66.40
6540;DHT22;50344;51.142;16.892;2023-10-13T03:12:39;23.60;66.10
6540;DHT22;50344;51.142;16.892;2023-10-13T03:15:06;23.90;66.50
6540;DHT22;50344;51.142;16.892;2023-10-13T03:17:42;23.90;66.30
6540;DHT22;50344;51.142;16.892;2023-10-13T03:20:11;23.90;66.60
6540;DHT22;50344;51.142;16.892;2023-10-13T03:22:39;23.90;66.40
6540;DHT22;50344;51.142;16.892;2023-10-13T03:25:05;24.00;66.50
6540;DHT22;50344;51.142;16.892;2023-10-13T03:27:32;23.90;66.50
6540;DHT22;50344;51.142;16.892;2023-10-13T03:30:06;23.90;66.10
6540;DHT22;50344;51.142;16.892;2023-10-13T03:32:42;23.90;65.80
6540;DHT22;50344;51.142;16.892;2023-10-13T03:35:26;23.90;66.50
6540;DHT22;50344;51.142;16.892;2023-10-13T03:38:03;23.90;65.80
6540;DHT22;50344;51.142;16.892;2023-10-13T03:40:29;23.90;66.60
6540;DHT22;50344;51.142;16.892;2023-10-13T03:42:59;23.90;66.40
6540;DHT22;50344;51.142;16.892;2023-10-13T03:45:51;23.90;66.50
6540;DHT22;50344;51.142;16.892;2023-10-13T03:48:43;23.90;65.60
6540;DHT22;50344;51.142;16.892;2023-10-13T03:51:18;23.90;65.30
6540;DHT22;50344;51.142;16.892;2023-10-13T03:53:44;23.90;65.90
6540;DHT22;50344;51.142;16.892;2023-10-13T03:56:20;23.90;65.10
6540;DHT22;50344;51.142;16.892;2023-10-13T03:59:03;23.90;65.70
6540;DHT22;50344;51.142;16.892;2023-10-13T04:01:38;23.90;65.30
6540;DHT22;50344;51.142;16.892;2023-10-13T04:04:24;23.90;64.90
6540;DHT22;50344;51.142;16.892;2023-10-13T04:07:08;23.90;66.30
6540;DHT22;50344;51.142;16.892;2023-10-13T04:09:35;23.90;66.10
6540;DHT22;50344;51.142;16.892;2023-10-13T04:12:13;23.90;66.20
6540;DHT22;50344;51.142;16.892;2023-10-13T04:15:05;23.90;65.90
6540;DHT22;50344;51.142;16.892;2023-10-13T04:17:31;23.80;65.70
6540;DHT22;50344;51.142;16.892;2023-10-13T04:20:06;23.90;66.10
6540;DHT22;50344;51.142;16.892;2023-10-13T04:22:39;23.90;65.50
6540;DHT22;50344;51.142;16.892;2023-10-13T04:25:21;23.90;66.20
6540;DHT22;50344;51.142;16.892;2023-10-13T04:28:08;23.90;65.00
6540;DHT22;50344;51.142;16.892;2023-10-13T04:30:47;23.80;65.50
6540;DHT22;50344;51.142;16.892;2023-10-13T04:33:31;23.80;65.50
6540;DHT22;50344;51.142;16.892;2023-10-13T04:39:19;23.80;64.10
6540;DHT22;50344;51.142;16.892;2023-10-13T04:41:54;23.80;64.80
6540;DHT22;50344;51.142;16.892;2023-10-13T04:44:20;23.80;64.60
6540;DHT22;50344;51.142;16.892;2023-10-13T04:46:55;23.80;63.80
6540;DHT22;50344;51.142;16.892;2023-10-13T04:49:25;23.80;66.00
6540;DHT22;50344;51.142;16.892;2023-10-13T04:51:59;23.70;66.20
6540;DHT22;50344;51.142;16.892;2023-10-13T04:54:27;23.80;66.90
6540;DHT22;50344;51.142;16.892;2023-10-13T04:57:02;23.80;67.40
6540;DHT22;50344;51.142;16.892;2023-10-13T04:59:47;23.80;67.10
6540;DHT22;50344;51.142;16.892;2023-10-13T05:02:32;23.80;67.80
6540;DHT22;50344;51.142;16.892;2023-10-13T05:05:10;23.80;67.70
6540;DHT22;50344;51.142;16.892;2023-10-13T05:07:40;23.80;67.20
6540;DHT22;50344;51.142;16.892;2023-10-13T05:10:24;23.80;68.20
6540;DHT22;50344;51.142;16.892;2023-10-13T05:13:08;23.80;67.30
6540;DHT22;50344;51.142;16.892;2023-10-13T05:15:52;23.80;67.60
6540;DHT22;50344;51.142;16.892;2023-10-13T05:18:36;23.80;67.90
6540;DHT22;50344;51.142;16.892;2023-10-13T05:21:21;23.80;67.70
6540;DHT22;50344;51.142;16.892;2023-10-13T05:24:06;23.80;67.70
6540;DHT22;50344;51.142;16.892;2023-10-13T05:26:51;23.80;68.20
6540;DHT22;50344;51.142;16.892;2023-10-13T05:29:39;23.80;68.30
6540;DHT22;50344;51.142;16.892;2023-10-13T05:32:24;23.80;68.10
6540;DHT22;50344;51.142;16.892;2023-10-13T05:35:08;23.80;68.00
6540;DHT22;50344;51.142;16.892;2023-10-13T05:37:52;23.80;67.90
6540;DHT22;50344;51.142;16.892;2023-10-13T05:40:36;23.80;67.80
6540;DHT22;50344;51.142;16.892;2023-10-13T05:43:21;23.80;67.80
6540;DHT22;50344;51.142;16.892;2023-10-13T05:46:05;23.80;68.10
6540;DHT22;50344;51.142;16.892;2023-10-13T05:48:50;23.80;68.40
6540;DHT22;50344;51.142;16.892;2023-10-13T05:51:28;23.80;68.10
6540;DHT22;50344;51.142;16.892;2023-10-13T05:54:12;23.80;67.30
6540;DHT22;50344;51.142;16.892;2023-10-13T05:56:50;23.80;67.70
6540;DHT22;50344;51.142;16.892;2023-10-13T05:59:36;23.80;66.20
6540;DHT22;50344;51.142;16.892;2023-10-13T06:02:21;23.90;67.00
6540;DHT22;50344;51.142;16.892;2023-10-13T06:05:10;24.00;66.90
6540;DHT22;50344;51.142;16.892;2023-10-13T06:07:56;23.90;66.10
6540;DHT22;50344;51.142;16.892;2023-10-13T06:10:41;23.90;67.30
6540;DHT22;50344;51.142;16.892;2023-10-13T06:13:25;23.90;66.90
6540;DHT22;50344;51.142;16.892;2023-10-13T06:16:15;23.90;66.70
6540;DHT22;50344;51.142;16.892;2023-10-13T06:19:00;23.80;67.00
6540;DHT22;50344;51.142;16.892;2023-10-13T06:21:45;23.90;67.00
6540;DHT22;50344;51.142;16.892;2023-10-13T06:24:30;23.80;67.50
6540;DHT22;50344;51.142;16.892;2023-10-13T06:27:15;23.80;67.70
6540;DHT22;50344;51.142;16.892;2023-10-13T06:30:00;23.80;68.00
6540;DHT22;50344;51.142;16.892;2023-10-13T06:32:30;23.80;68.00
6540;DHT22;50344;51.142;16.892;2023-10-13T06:34:57;23.80;68.10
6540;DHT22;50344;51.142;16.892;2023-10-13T06:37:44;23.80;67.90
6540;DHT22;50344;51.142;16.892;2023-10-13T06:40:11;23.90;68.20
6540;DHT22;50344;51.142;16.892;2023-10-13T06:42:46;23.90;67.80
6540;DHT22;50344;51.142;16.892;2023-10-13T06:45:12;23.80;67.80
6540;DHT22;50344;51.142;16.892;2023-10-13T06:47:38;23.90;67.50
6540;DHT22;50344;51.142;16.892;2023-10-13T06:52:44;23.50;67.10
6540;DHT22;50344;51.142;16.892;2023-10-13T06:55:11;23.90;67.40
6540;DHT22;50344;51.142;16.892;2023-10-13T06:57:43;23.90;66.90
6540;DHT22;50344;51.142;16.892;2023-10-13T07:00:10;23.90;68.20
6540;DHT22;50344;51.142;16.892;2023-10-13T07:02:46;23.80;66.80
6540;DHT22;50344;51.142;16.892;2023-10-13T07:05:12;23.90;67.60
6540;DHT22;50344;51.142;16.892;2023-10-13T07:07:40;23.90;67.60
6540;DHT22;50344;51.142;16.892;2023-10-13T07:10:15;23.90;67.50
6540;DHT22;50344;51.142;16.892;2023-10-13T07:12:42;23.90;67.10
6540;DHT22;50344;51.142;16.892;2023-10-13T07:15:10;23.90;67.40
6540;DHT22;50344;51.142;16.892;2023-10-13T07:17:37;24.00;67.50
6540;DHT22;50344;51.142;16.892;2023-10-13T07:20:07;23.80;67.10
6540;DHT22;50344;51.142;16.892;2023-10-13T07:22:51;24.00;67.30
6540;DHT22;50344;51.142;16.892;2023-10-13T07:25:32;24.00;66.90
6540;DHT22;50344;51.142;16.892;2023-10-13T07:28:02;24.00;67.50
6540;DHT22;50344;51.142;16.892;2023-10-13T07:30:35;24.10;67.60
6540;DHT22;50344;51.142;16.892;2023-10-13T07:33:19;24.00;67.50
6540;DHT22;50344;51.142;16.892;2023-10-13T07:36:00;24.00;67.70
6540;DHT22;50344;51.142;16.892;2023-10-13T07:38:26;24.10;67.50
6540;DHT22;50344;51.142;16.892;2023-10-13T07:40:56;24.10;67.60
6540;DHT22;50344;51.142;16.892;2023-10-13T07:43:25;24.10;67.60
6540;DHT22;50344;51.142;16.892;2023-10-13T07:45:53;24.10;67.60
6540;DHT22;50344;51.142;16.892;2023-10-13T07:48:24;24.10;67.60
6540;DHT22;50344;51.142;16.892;2023-10-13T07:51:04;24.10;67.50
6540;DHT22;50344;51.142;16.892;2023-10-13T07:53:31;24.10;67.20
6540;DHT22;50344;51.142;16.892;2023-10-13T07:56:15;24.20;67.30
6540;DHT22;50344;51.142;16.892;2023-10-13T07:58:45;24.10;66.60
6540;DHT22;50344;51.142;16.892;2023-10-13T08:01:26;24.20;67.30
6540;DHT22;50344;51.142;16.892;2023-10-13T08:03:52;24.30;67.10
6540;DHT22;50344;51.142;16.892;2023-10-13T08:06:36;24.30;66.50
6540;DHT22;50344;51.142;16.892;2023-10-13T08:09:03;24.40;66.90
6540;DHT22;50344;51.142;16.892;2023-10-13T08:11:38;24.40;66.90
6540;DHT22;50344;51.142;16.892;2023-10-13T08:14:05;24.40;66.60
6540;DHT22;50344;51.142;16.892;2023-10-13T08:16:39;24.30;66.30
6540;DHT22;50344;51.142;16.892;2023-10-13T08:19:23;24.50;66.40
6540;DHT22;50344;51.142;16.892;2023-10-13T08:22:18;24.50;65.70
6540;DHT22;50344;51.142;16.892;2023-10-13T08:24:44;24.50;66.40
6540;DHT22;50344;51.142;16.892;2023-10-13T08:27:10;24.50;66.00
6540;DHT22;50344;51.142;16.892;2023-10-13T08:29:55;24.50;65.70
6540;DHT22;50344;51.142;16.892;2023-10-13T08:34:56;24.50;65.50
6540;DHT22;50344;51.142;16.892;2023-10-13T08:37:29;24.60;66.10
6540;DHT22;50344;51.142;16.892;2023-10-13T08:39:59;24.70;66.20
6540;DHT22;50344;51.142;16.892;2023-10-13T08:42:45;24.60;66.10
6540;DHT22;50344;51.142;16.892;2023-10-13T08:45:11;24.60;66.10
6540;DHT22;50344;51.142;16.892;2023-10-13T08:47:53;24.60;66.10
6540;DHT22;50344;51.142;16.892;2023-10-13T08:50:34;24.60;66.10
6540;DHT22;50344;51.142;16.892;2023-10-13T08:53:24;24.70;66.10
6540;DHT22;50344;51.142;16.892;2023-10-13T08:56:07;24.70;65.10
6540;DHT22;50344;51.142;16.892;2023-10-13T08:58:40;24.70;66.00
6540;DHT22;50344;51.142;16.892;2023-10-13T09:01:18;24.70;65.90
6540;DHT22;50344;51.142;16.892;2023-10-13T09:04:04;24.70;65.90
6540;DHT22;50344;51.142;16.892;2023-10-13T09:06:56;24.70;65.90
6540;DHT22;50344;51.142;16.892;2023-10-13T09:09:28;24.70;66.10
6540;DHT22;50344;51.142;16.892;2023-10-13T09:12:20;24.70;66.00
6540;DHT22;50344;51.142;16.892;2023-10-13T09:14:55;24.70;64.90
6540;DHT22;50344;51.142;16.892;2023-10-13T09:17:25;24.70;65.80
6540;DHT22;50344;51.142;16.892;2023-10-13T09:20:05;24.70;65.90
6540;DHT22;50344;51.142;16.892;2023-10-13T09:22:57;24.70;65.80
6540;DHT22;50344;51.142;16.892;2023-10-13T09:25:33;24.70;65.60
6540;DHT22;50344;51.142;16.892;2023-10-13T09:28:20;24.70;65.60
6540;DHT22;50344;51.142;16.892;2023-10-13T09:30:52;24.30;65.00
6540;DHT22;50344;51.142;16.892;2023-10-13T09:33:29;24.80;65.50
6540;DHT22;50344;51.142;16.892;2023-10-13T09:35:58;24.80;65.40
6540;DHT22;50344;51.142;16.892;2023-10-13T09:38:27;24.80;65.40
6540;DHT22;50344;51.142;16.892;2023-10-13T09:40:53;24.80;65.40
6540;DHT22;50344;51.142;16.892;2023-10-13T09:43:23;24.70;65.50
6540;DHT22;50344;51.142;16.892;2023-10-13T09:45:50;24.80;65.60
6540;DHT22;50344;51.142;16.892;2023-10-13T09:48:36;24.70;65.70
6540;DHT22;50344;51.142;16.892;2023-10-13T09:51:03;24.80;65.80
6540;DHT22;50344;51.142;16.892;2023-10-13T09:53:33;24.80;65.50
6540;DHT22;50344;51.142;16.892;2023-10-13T09:58:46;24.80;65.40
6540;DHT22;50344;51.142;16.892;2023-10-13T10:01:19;24.80;65.50
6540;DHT22;50344;51.142;16.892;2023-10-13T10:03:47;24.70;65.50
6540;DHT22;50344;51.142;16.892;2023-10-13T10:06:22;24.70;65.50
6540;DHT22;50344;51.142;16.892;2023-10-13T10:09:08;24.70;65.70
6540;DHT22;50344;51.142;16.892;2023-10-13T10:18:00;24.70;64.40
6540;DHT22;50344;51.142;16.892;2023-10-13T10:20:36;24.60;65.70
6540;DHT22;50344;51.142;16.892;2023-10-13T10:23:10;24.60;64.90
6540;DHT22;50344;51.142;16.892;2023-10-13T10:25:47;24.60;65.80
6540;DHT22;50344;51.142;16.892;2023-10-13T10:28:13;24.70;66.10
6540;DHT22;50344;51.142;16.892;2023-10-13T10:30:42;24.60;65.20
6540;DHT22;50344;51.142;16.892;2023-10-13T10:33:10;24.50;65.70
6540;DHT22;50344;51.142;16.892;2023-10-13T10:35:58;24.60;65.70
6540;DHT22;50344;51.142;16.892;2023-10-13T10:38:24;24.50;65.80
6540;DHT22;50344;51.142;16.892;2023-10-13T10:41:05;24.70;66.00
6540;DHT22;50344;51.142;16.892;2023-10-13T10:46:17;24.70;65.00
6540;DHT22;50344;51.142;16.892;2023-10-13T10:48:44;24.80;64.60
6540;DHT22;50344;51.142;16.892;2023-10-13T10:51:14;25.00;66.70
6540;DHT22;50344;51.142;16.892;2023-10-13T10:53:52;25.00;65.70
6540;DHT22;50344;51.142;16.892;2023-10-13T10:56:22;24.90;65.50
6540;DHT22;50344;51.142;16.892;2023-10-13T10:59:08;25.00;65.50
6540;DHT22;50344;51.142;16.892;2023-10-13T11:01:44;25.00;65.30
6540;DHT22;50344;51.142;16.892;2023-10-13T11:04:14;25.10;65.00
6540;DHT22;50344;51.142;16.892;2023-10-13T11:06:49;25.10;64.90
6540;DHT22;50344;51.142;16.892;2023-10-13T11:09:27;25.00;64.90
6540;DHT22;50344;51.142;16.892;2023-10-13T11:14:32;25.10;64.80
6540;DHT22;50344;51.142;16.892;2023-10-13T11:16:59;25.10;64.80
6540;DHT22;50344;51.142;16.892;2023-10-13T11:19:35;25.20;64.80
6540;DHT22;50344;51.142;16.892;2023-10-13T11:22:11;25.20;64.80
6540;DHT22;50344;51.142;16.892;2023-10-13T11:24:43;25.20;64.90
6540;DHT22;50344;51.142;16.892;2023-10-13T11:27:15;25.20;64.90
6540;DHT22;50344;51.142;16.892;2023-10-13T11:30:04;25.20;64.80
6540;DHT22;50344;51.142;16.892;2023-10-13T11:32:37;25.20;64.50
6540;DHT22;50344;51.142;16.892;2023-10-13T11:35:08;25.20;64.80
6540;DHT22;50344;51.142;16.892;2023-10-13T11:37:55;25.20;64.80
6540;DHT22;50344;51.142;16.892;2023-10-13T11:40:39;25.10;64.70
6540;DHT22;50344;51.142;16.892;2023-10-13T11:43:23;25.00;64.80
6540;DHT22;50344;51.142;16.892;2023-10-13T11:45:50;24.90;65.20
6540;DHT22;50344;51.142;16.892;2023-10-13T11:48:39;25.10;65.00
6540;DHT22;50344;51.142;16.892;2023-10-13T11:51:11;24.90;65.20
6540;DHT22;50344;51.142;16.892;2023-10-13T11:53:44;24.90;65.20
6540;DHT22;50344;51.142;16.892;2023-10-13T11:56:21;24.80;65.40
6540;DHT22;50344;51.142;16.892;2023-10-13T11:58:47;24.90;65.20
6540;DHT22;50344;51.142;16.892;2023-10-13T12:01:14;24.80;65.20
6540;DHT22;50344;51.142;16.892;2023-10-13T12:03:40;24.80;65.40
6540;DHT22;50344;51.142;16.892;2023-10-13T12:06:25;24.90;65.40
6540;DHT22;50344;51.142;16.892;2023-10-13T12:09:07;24.80;65.20
6540;DHT22;50344;51.142;16.892;2023-10-13T12:12:05;24.80;65.40
6540;DHT22;50344;51.142;16.892;2023-10-13T12:14:30;24.80;65.30
6540;DHT22;50344;51.142;16.892;2023-10-13T12:17:21;24.80;65.50
6540;DHT22;50344;51.142;16.892;2023-10-13T12:20:06;24.70;64.40
6540;DHT22;50344;51.142;16.892;2023-10-13T12:22:38;24.70;65.10
6540;DHT22;50344;51.142;16.892;2023-10-13T12:25:20;24.70;64.40
6540;DHT22;50344;51.142;16.892;2023-10-13T12:27:58;24.70;65.50
6540;DHT22;50344;51.142;16.892;2023-10-13T12:30:31;24.70;65.60
6540;DHT22;50344;51.142;16.892;2023-10-13T12:33:18;24.70;65.00
6540;DHT22;50344;51.142;16.892;2023-10-13T12:35:57;24.70;65.60
6540;DHT22;50344;51.142;16.892;2023-10-13T12:38:33;24.70;65.50
6540;DHT22;50344;51.142;16.892;2023-10-13T12:41:18;24.70;65.50
6540;DHT22;50344;51.142;16.892;2023-10-13T12:44:03;24.70;65.40
6540;DHT22;50344;51.142;16.892;2023-10-13T12:46:48;24.80;65.90
6540;DHT22;50344;51.142;16.892;2023-10-13T12:49:36;24.80;64.60
6540;DHT22;50344;51.142;16.892;2023-10-13T12:52:15;24.80;65.20
6540;DHT22;50344;51.142;16.892;2023-10-13T12:54:58;24.80;65.80
6540;DHT22;50344;51.142;16.892;2023-10-13T12:57:31;24.80;65.30
6540;DHT22;50344;51.142;16.892;2023-10-13T12:59:57;24.70;65.40
6540;DHT22;50344;51.142;16.892;2023-10-13T13:02:24;24.60;65.30
6540;DHT22;50344;51.142;16.892;2023-10-13T13:04:51;24.70;65.30
6540;DHT22;50344;51.142;16.892;2023-10-13T13:07:23;24.70;65.20
6540;DHT22;50344;51.142;16.892;2023-10-13T13:09:54;24.70;65.40
6540;DHT22;50344;51.142;16.892;2023-10-13T13:12:24;24.70;65.50
6540;DHT22;50344;51.142;16.892;2023-10-13T13:14:50;24.70;66.00
6540;DHT22;50344;51.142;16.892;2023-10-13T13:17:23;24.70;65.90
6540;DHT22;50344;51.142;16.892;2023-10-13T13:19:49;24.70;66.70
6540;DHT22;50344;51.142;16.892;2023-10-13T13:22:15;24.70;66.20
6540;DHT22;50344;51.142;16.892;2023-10-13T13:24:44;24.70;66.40
6540;DHT22;50344;51.142;16.892;2023-10-13T13:27:11;24.70;66.50
6540;DHT22;50344;51.142;16.892;2023-10-13T13:29:43;24.70;66.50
6540;DHT22;50344;51.142;16.892;2023-10-13T13:32:08;24.70;65.80
6540;DHT22;50344;51.142;16.892;2023-10-13T13:34:44;24.70;66.90
6540;DHT22;50344;51.142;16.892;2023-10-13T13:37:20;24.70;66.80
6540;DHT22;50344;51.142;16.892;2023-10-13T13:39:45;24.70;66.80
6540;DHT22;50344;51.142;16.892;2023-10-13T13:42:11;24.60;66.40
6540;DHT22;50344;51.142;16.892;2023-10-13T13:44:43;24.70;66.40
6540;DHT22;50344;51.142;16.892;2023-10-13T13:47:12;24.70;66.40
6540;DHT22;50344;51.142;16.892;2023-10-13T13:49:39;24.90;66.70
6540;DHT22;50344;51.142;16.892;2023-10-13T13:52:19;24.70;66.50
6540;DHT22;50344;51.142;16.892;2023-10-13T13:54:59;24.60;66.40
6540;DHT22;50344;51.142;16.892;2023-10-13T13:57:28;24.70;66.90
6540;DHT22;50344;51.142;16.892;2023-10-13T13:59:55;24.70;66.30
6540;DHT22;50344;51.142;16.892;2023-10-13T14:02:23;24.70;66.40
6540;DHT22;50344;51.142;16.892;2023-10-13T14:04:49;24.70;66.40
6540;DHT22;50344;51.142;16.892;2023-10-13T14:07:21;24.70;65.80
6540;DHT22;50344;51.142;16.892;2023-10-13T14:09:49;24.70;66.40
6540;DHT22;50344;51.142;16.892;2023-10-13T14:12:19;24.60;66.10
6540;DHT22;50344;51.142;16.892;2023-10-13T14:15:03;24.60;66.50
6540;DHT22;50344;51.142;16.892;2023-10-13T14:17:29;24.60;66.60
6540;DHT22;50344;51.142;16.892;2023-10-13T14:19:58;24.60;66.70
6540;DHT22;50344;51.142;16.892;2023-10-13T14:22:24;24.60;66.70
6540;DHT22;50344;51.142;16.892;2023-10-13T14:24:51;24.60;66.50
6540;DHT22;50344;51.142;16.892;2023-10-13T14:27:20;24.60;66.60
6540;DHT22;50344;51.142;16.892;2023-10-13T14:29:49;24.60;66.50
6540;DHT22;50344;51.142;16.892;2023-10-13T14:32:19;24.50;66.10
6540;DHT22;50344;51.142;16.892;2023-10-13T14:34:46;24.40;66.20
6540;DHT22;50344;51.142;16.892;2023-10-13T14:37:20;24.20;66.40
6540;DHT22;50344;51.142;16.892;2023-10-13T14:39:53;24.10;66.80
6540;DHT22;50344;51.142;16.892;2023-10-13T14:42:28;24.10;67.10
6540;DHT22;50344;51.142;16.892;2023-10-13T14:45:00;24.10;67.30
6540;DHT22;50344;51.142;16.892;2023-10-13T14:47:26;24.20;67.50
6540;DHT22;50344;51.142;16.892;2023-10-13T14:49:56;24.30;67.30
6540;DHT22;50344;51.142;16.892;2023-10-13T14:52:25;24.40;67.20
6540;DHT22;50344;51.142;16.892;2023-10-13T14:54:51;24.40;67.00
6540;DHT22;50344;51.142;16.892;2023-10-13T14:57:23;24.50;66.70
6540;DHT22;50344;51.142;16.892;2023-10-13T14:59:53;24.50;66.70
6540;DHT22;50344;51.142;16.892;2023-10-13T15:02:19;24.50;66.90
6540;DHT22;50344;51.142;16.892;2023-10-13T15:04:47;24.50;66.90
6540;DHT22;50344;51.142;16.892;2023-10-13T15:07:14;24.50;66.80
6540;DHT22;50344;51.142;16.892;2023-10-13T15:09:40;24.50;66.80
6540;DHT22;50344;51.142;16.892;2023-10-13T15:12:08;24.50;66.80
6540;DHT22;50344;51.142;16.892;2023-10-13T15:14:37;24.50;67.00
6540;DHT22;50344;51.142;16.892;2023-10-13T15:17:04;24.50;67.10
6540;DHT22;50344;51.142;16.892;2023-10-13T15:19:32;24.50;67.00
6540;DHT22;50344;51.142;16.892;2023-10-13T15:22:02;24.50;66.90
6540;DHT22;50344;51.142;16.892;2023-10-13T15:24:34;24.50;66.70
6540;DHT22;50344;51.142;16.892;2023-10-13T15:27:08;24.50;65.60
6540;DHT22;50344;51.142;16.892;2023-10-13T15:29:34;24.50;66.70
6540;DHT22;50344;51.142;16.892;2023-10-13T15:32:04;24.50;65.80
6540;DHT22;50344;51.142;16.892;2023-10-13T15:34:31;24.50;66.50
6540;DHT22;50344;51.142;16.892;2023-10-13T15:36:59;24.50;66.40
6540;DHT22;50344;51.142;16.892;2023-10-13T15:39:25;24.50;66.60
6540;DHT22;50344;51.142;16.892;2023-10-13T15:41:54;24.50;66.60
6540;DHT22;50344;51.142;16.892;2023-10-13T15:44:24;24.50;66.50
6540;DHT22;50344;51.142;16.892;2023-10-13T15:46:54;24.50;66.40
6540;DHT22;50344;51.142;16.892;2023-10-13T15:49:21;24.40;66.50
6540;DHT22;50344;51.142;16.892;2023-10-13T15:51:47;24.50;66.50
6540;DHT22;50344;51.142;16.892;2023-10-13T15:54:12;24.50;66.70
6540;DHT22;50344;51.142;16.892;2023-10-13T15:56:42;24.20;65.90
6540;DHT22;50344;51.142;16.892;2023-10-13T15:59:11;24.50;66.80
6540;DHT22;50344;51.142;16.892;2023-10-13T16:01:37;24.50;67.60
6540;DHT22;50344;51.142;16.892;2023-10-13T16:04:09;24.50;66.20
6540;DHT22;50344;51.142;16.892;2023-10-13T16:06:43;24.50;66.60
6540;DHT22;50344;51.142;16.892;2023-10-13T16:09:15;24.60;66.80
6540;DHT22;50344;51.142;16.892;2023-10-13T16:11:42;24.50;66.60
6540;DHT22;50344;51.142;16.892;2023-10-13T16:14:09;24.40;66.50
6540;DHT22;50344;51.142;16.892;2023-10-13T16:16:43;24.40;66.60
6540;DHT22;50344;51.142;16.892;2023-10-13T16:19:13;24.40;66.40
6540;DHT22;50344;51.142;16.892;2023-10-13T16:21:39;24.50;66.10
6540;DHT22;50344;51.142;16.892;2023-10-13T16:24:06;24.40;66.90
6540;DHT22;50344;51.142;16.892;2023-10-13T16:26:36;24.50;65.90
6540;DHT22;50344;51.142;16.892;2023-10-13T16:29:03;24.40;66.20
6540;DHT22;50344;51.142;16.892;2023-10-13T16:31:28;24.50;66.00
6540;DHT22;50344;51.142;16.892;2023-10-13T16:33:55;24.40;66.20